createdAt,value
2017-11-08T00:00:03.277Z,6.72
2017-11-08T00:01:03.271Z,6.64
2017-11-08T00:02:03.265Z,6.67
2017-11-08T00:03:03.259Z,6.70
2017-11-08T00:04:03.254Z,6.64
2017-11-08T00:05:03.249Z,6.67
2017-11-08T00:06:03.243Z,6.66
2017-11-08T00:07:03.239Z,6.69
2017-11-08T00:08:03.232Z,6.64
2017-11-08T00:09:03.228Z,6.75
2017-11-08T00:10:03.223Z,6.66
2017-11-08T00:11:03.218Z,6.69
2017-11-08T00:12:03.210Z,6.64
2017-11-08T00:13:03.208Z,6.66
2017-11-08T00:14:03.202Z,6.69
2017-11-08T00:15:03.196Z,6.66
2017-11-08T00:16:03.190Z,6.63
2017-11-08T00:17:03.184Z,6.66
2017-11-08T00:18:03.179Z,6.64
2017-11-08T00:19:03.175Z,6.69
2017-11-08T00:20:03.169Z,6.72
2017-11-08T00:21:03.165Z,6.64
2017-11-08T00:22:03.160Z,6.70
2017-11-08T00:23:03.154Z,6.66
2017-11-08T00:24:03.149Z,6.67
2017-11-08T00:25:03.144Z,6.66
2017-11-08T00:26:03.138Z,6.66
2017-11-08T00:27:03.132Z,6.72
2017-11-08T00:28:03.130Z,6.63
2017-11-08T00:29:03.124Z,6.64
2017-11-08T00:30:03.117Z,6.69
2017-11-08T00:31:03.111Z,6.67
2017-11-08T00:32:03.106Z,6.75
2017-11-08T00:33:03.100Z,6.66
2017-11-08T00:34:03.096Z,6.63
2017-11-08T00:35:03.092Z,6.66
2017-11-08T00:36:03.085Z,6.66
2017-11-08T00:37:03.079Z,6.59
2017-11-08T00:38:03.074Z,6.75
2017-11-08T00:39:03.069Z,6.60
2017-11-08T00:54:18.380Z,6.49
2017-11-08T00:55:18.373Z,6.57
2017-11-08T00:56:18.368Z,6.48
2017-11-08T00:57:18.363Z,6.57
2017-11-08T00:58:18.358Z,6.48
2017-11-08T00:59:18.353Z,6.52
2017-11-08T01:00:18.346Z,6.44
2017-11-08T01:01:18.342Z,6.45
2017-11-08T01:02:18.338Z,6.54
2017-11-08T01:03:18.330Z,6.49
2017-11-08T01:04:18.325Z,6.49
2017-11-08T01:05:18.320Z,6.48
2017-11-08T01:06:18.322Z,6.49
2017-11-08T01:07:18.308Z,6.51
2017-11-08T01:08:18.303Z,6.52
2017-11-08T01:09:18.298Z,6.49
2017-11-08T01:10:18.293Z,6.54
2017-11-08T01:11:18.287Z,6.54
2017-11-08T01:12:18.281Z,6.48
2017-11-08T01:13:18.277Z,6.44
2017-11-08T01:14:18.271Z,6.45
2017-11-08T01:15:18.264Z,6.44
2017-11-08T01:16:18.260Z,6.49
2017-11-08T01:17:18.254Z,6.54
2017-11-08T01:18:18.250Z,6.59
2017-11-08T01:19:18.243Z,6.46
2017-11-08T01:20:18.238Z,6.54
2017-11-08T01:21:18.233Z,6.49
2017-11-08T01:22:18.227Z,6.54
2017-11-08T01:23:18.222Z,6.59
2017-11-08T01:24:18.220Z,6.48
2017-11-08T01:25:18.212Z,6.56
2017-11-08T01:26:18.206Z,6.54
2017-11-08T01:27:18.199Z,6.60
2017-11-08T01:28:18.193Z,6.60
2017-11-08T01:29:18.189Z,6.49
2017-11-08T01:30:18.183Z,6.62
2017-11-08T01:31:18.177Z,6.54
2017-11-08T01:32:18.171Z,6.66
2017-11-08T01:33:18.167Z,6.54
2017-11-08T01:34:18.162Z,6.59
2017-11-08T01:35:18.155Z,6.66
2017-11-08T01:36:18.151Z,6.57
2017-11-08T01:37:18.144Z,6.59
2017-11-08T01:38:18.139Z,6.62
2017-11-08T01:39:18.134Z,6.66
2017-11-08T01:40:18.128Z,6.66
2017-11-08T01:41:18.122Z,6.59
2017-11-08T01:42:18.116Z,6.59
2017-11-08T01:43:18.111Z,6.52
2017-11-08T01:44:18.105Z,6.63
2017-11-08T01:45:18.100Z,6.54
2017-11-08T01:46:18.103Z,6.51
2017-11-08T01:47:18.087Z,6.66
2017-11-08T01:48:18.082Z,6.49
2017-11-08T01:49:18.079Z,6.64
2017-11-08T01:50:18.072Z,6.63
2017-11-08T01:51:18.068Z,6.66
2017-11-08T01:52:18.061Z,6.62
2017-11-08T01:53:18.056Z,6.69
2017-11-08T01:54:18.049Z,6.72
2017-11-08T01:55:18.044Z,6.69
2017-11-08T01:56:18.038Z,6.66
2017-11-08T01:57:18.032Z,6.67
2017-11-08T01:58:18.030Z,6.67
2017-11-08T01:59:18.021Z,6.67
2017-11-08T02:00:18.016Z,6.62
2017-11-08T02:01:18.011Z,6.72
2017-11-08T02:02:18.005Z,6.69
2017-11-08T02:03:17.998Z,6.77
2017-11-08T02:04:17.994Z,6.74
2017-11-08T02:05:17.990Z,6.67
2017-11-08T02:06:17.986Z,6.72
2017-11-08T02:07:17.977Z,6.79
2017-11-08T02:08:17.980Z,6.78
2017-11-08T02:09:17.968Z,6.75
2017-11-08T02:10:17.960Z,6.74
2017-11-08T02:11:17.955Z,6.82
2017-11-08T02:12:17.949Z,6.81
2017-11-08T02:13:17.944Z,6.88
2017-11-08T02:14:17.939Z,6.82
2017-11-08T02:15:17.932Z,6.82
2017-11-08T02:16:17.928Z,6.78
2017-11-08T02:17:17.925Z,6.81
2017-11-08T02:18:17.917Z,6.84
2017-11-08T02:19:17.912Z,6.87
2017-11-08T02:20:17.905Z,6.88
2017-11-08T02:21:17.901Z,6.93
2017-11-08T02:22:17.895Z,6.84
2017-11-08T02:23:17.889Z,6.93
2017-11-08T02:24:17.885Z,6.88
2017-11-08T02:25:17.879Z,6.87
2017-11-08T02:26:17.872Z,6.92
2017-11-08T02:27:17.866Z,6.89
2017-11-08T02:28:17.864Z,6.96
2017-11-08T02:29:17.857Z,6.89
2017-11-08T02:30:17.852Z,6.95
2017-11-08T02:31:17.845Z,6.89
2017-11-08T02:32:17.841Z,6.92
2017-11-08T02:33:17.835Z,6.93
2017-11-08T02:34:17.838Z,6.95
2017-11-08T02:35:17.825Z,6.93
2017-11-08T02:36:17.820Z,6.97
2017-11-08T02:37:17.814Z,6.95
2017-11-08T02:38:17.814Z,6.93
2017-11-08T02:39:17.802Z,6.93
2017-11-08T02:40:17.797Z,7.02
2017-11-08T02:41:17.792Z,7.05
2017-11-08T02:42:17.787Z,7.00
2017-11-08T02:43:17.780Z,7.05
2017-11-08T02:44:17.776Z,6.93
2017-11-08T02:45:17.772Z,7.10
2017-11-08T02:46:17.767Z,7.02
2017-11-08T02:47:17.760Z,7.06
2017-11-08T02:48:17.755Z,6.93
2017-11-08T02:49:17.749Z,7.03
2017-11-08T02:50:17.744Z,6.99
2017-11-08T02:51:17.738Z,7.02
2017-11-08T02:52:17.732Z,6.99
2017-11-08T02:53:17.727Z,7.06
2017-11-08T02:54:17.722Z,7.02
2017-11-08T02:55:17.716Z,7.03
2017-11-08T02:56:17.716Z,7.10
2017-11-08T02:57:17.706Z,7.03
2017-11-08T02:58:17.701Z,7.06
2017-11-08T02:59:17.695Z,7.02
2017-11-08T03:00:17.694Z,7.02
2017-11-08T03:01:17.688Z,7.05
2017-11-08T03:02:17.679Z,6.99
2017-11-08T03:03:17.674Z,7.03
2017-11-08T03:04:17.667Z,7.07
2017-11-08T03:05:17.662Z,7.06
2017-11-08T03:06:17.657Z,7.06
2017-11-08T03:07:17.651Z,7.06
2017-11-08T03:08:17.647Z,6.93
2017-11-08T03:09:17.641Z,6.93
2017-11-08T03:10:17.636Z,6.95
2017-11-08T03:11:17.630Z,6.96
2017-11-08T03:12:17.625Z,7.03
2017-11-08T03:13:17.619Z,6.93
2017-11-08T03:14:17.615Z,6.92
2017-11-08T03:15:17.608Z,6.92
2017-11-08T03:16:17.604Z,6.93
2017-11-08T03:17:17.598Z,6.92
2017-11-08T03:18:17.593Z,6.89
2017-11-08T03:19:17.586Z,6.89
2017-11-08T03:20:17.582Z,6.87
2017-11-08T03:21:17.585Z,6.96
2017-11-08T03:22:17.572Z,6.89
2017-11-08T03:23:17.565Z,6.95
2017-11-08T03:24:17.561Z,6.97
2017-11-08T03:25:17.555Z,6.95
2017-11-08T03:26:17.550Z,6.97
2017-11-08T03:27:17.545Z,6.93
2017-11-08T03:28:17.545Z,6.93
2017-11-08T03:29:17.534Z,6.89
2017-11-08T03:30:17.529Z,6.95
2017-11-08T03:31:17.524Z,6.88
2017-11-08T03:32:17.519Z,6.87
2017-11-08T03:33:17.512Z,6.85
2017-11-08T03:34:17.507Z,6.92
2017-11-08T03:35:17.503Z,6.92
2017-11-08T03:36:17.497Z,6.88
2017-11-08T03:37:17.491Z,6.85
2017-11-08T03:38:17.486Z,6.88
2017-11-08T03:39:17.480Z,6.87
2017-11-08T03:40:17.477Z,6.87
2017-11-08T03:41:17.475Z,6.78
2017-11-08T03:42:17.468Z,6.85
2017-11-08T03:43:17.457Z,6.95
2017-11-08T03:44:17.454Z,6.84
2017-11-08T03:45:17.449Z,6.78
2017-11-08T03:46:17.443Z,6.89
2017-11-08T03:47:17.437Z,6.92
2017-11-08T03:48:17.433Z,6.88
2017-11-08T03:49:17.429Z,6.89
2017-11-08T03:50:17.423Z,6.87
2017-11-08T03:51:17.416Z,6.93
2017-11-08T03:52:17.410Z,6.84
2017-11-08T03:53:17.406Z,6.85
2017-11-08T03:54:17.400Z,6.88
2017-11-08T03:55:17.394Z,6.93
2017-11-08T03:56:17.389Z,6.92
2017-11-08T03:57:17.383Z,6.89
2017-11-08T03:58:17.379Z,6.85
2017-11-08T03:59:17.373Z,6.84
2017-11-08T04:00:17.367Z,6.81
2017-11-08T04:01:17.363Z,6.78
2017-11-08T04:02:17.359Z,6.82
2017-11-08T04:03:17.352Z,6.85
2017-11-08T04:04:17.346Z,6.87
2017-11-08T04:05:17.342Z,6.78
2017-11-08T04:06:17.336Z,6.85
2017-11-08T04:07:17.329Z,6.92
2017-11-08T04:08:17.324Z,6.88
2017-11-08T04:09:17.320Z,6.87
2017-11-08T04:10:17.315Z,6.89
2017-11-08T04:11:17.309Z,6.88
2017-11-08T04:12:17.305Z,6.87
2017-11-08T04:13:17.299Z,6.92
2017-11-08T04:14:17.294Z,6.82
2017-11-08T04:15:17.288Z,6.79
2017-11-08T04:16:17.283Z,6.82
2017-11-08T04:17:17.277Z,6.88
2017-11-08T04:18:17.280Z,6.92
2017-11-08T04:19:17.266Z,6.88
2017-11-08T04:20:17.264Z,6.89
2017-11-08T04:21:17.256Z,6.85
2017-11-08T04:22:17.252Z,6.82
2017-11-08T04:23:17.252Z,6.85
2017-11-08T04:24:17.241Z,6.89
2017-11-08T04:25:17.236Z,6.88
2017-11-08T04:26:17.231Z,6.88
2017-11-08T04:27:17.225Z,6.92
2017-11-08T04:28:17.219Z,6.88
2017-11-08T04:29:17.220Z,6.88
2017-11-08T04:30:17.210Z,6.78
2017-11-08T04:31:17.206Z,6.87
2017-11-08T04:32:17.198Z,6.85
2017-11-08T04:33:17.194Z,6.88
2017-11-08T04:34:17.189Z,6.88
2017-11-08T04:35:17.184Z,6.92
2017-11-08T04:36:17.178Z,6.87
2017-11-08T04:37:17.173Z,6.87
2017-11-08T04:38:17.167Z,6.93
2017-11-08T04:39:17.162Z,6.88
2017-11-08T04:40:17.174Z,6.88
2017-11-08T04:41:17.152Z,6.88
2017-11-08T04:42:17.146Z,6.89
2017-11-08T04:43:17.139Z,6.87
2017-11-08T04:44:17.136Z,6.89
2017-11-08T04:45:17.131Z,6.88
2017-11-08T04:46:17.126Z,6.93
2017-11-08T04:47:17.120Z,6.95
2017-11-08T04:48:17.115Z,6.93
2017-11-08T04:49:17.112Z,6.88
2017-11-08T04:50:17.105Z,6.87
2017-11-08T04:51:17.099Z,6.84
2017-11-08T04:52:17.092Z,6.87
2017-11-08T04:53:17.088Z,6.87
2017-11-08T04:54:17.083Z,6.92
2017-11-08T04:55:17.077Z,6.88
2017-11-08T04:56:17.085Z,6.89
2017-11-08T04:57:17.067Z,6.95
2017-11-08T04:58:17.062Z,6.95
2017-11-08T04:59:17.056Z,6.96
2017-11-08T05:00:17.053Z,6.95
2017-11-08T05:01:17.047Z,6.95
2017-11-08T05:02:17.041Z,6.89
2017-11-08T05:03:17.035Z,6.89
2017-11-08T05:04:17.031Z,6.96
2017-11-08T05:05:17.024Z,7.05
2017-11-08T05:06:17.030Z,7.05
2017-11-08T05:07:17.014Z,6.93
2017-11-08T05:08:17.009Z,6.93
2017-11-08T05:09:17.004Z,6.93
2017-11-08T05:10:16.999Z,6.88
2017-11-08T05:11:16.993Z,7.02
2017-11-08T05:12:16.989Z,6.92
2017-11-08T05:13:16.982Z,6.96
2017-11-08T05:14:16.978Z,6.97
2017-11-08T05:15:16.972Z,6.96
2017-11-08T05:16:16.966Z,6.93
2017-11-08T05:17:16.961Z,6.95
2017-11-08T05:18:16.955Z,6.93
2017-11-08T05:19:16.949Z,6.97
2017-11-08T05:20:16.943Z,6.88
2017-11-08T05:21:16.940Z,6.89
2017-11-08T05:22:16.935Z,6.85
2017-11-08T05:23:16.929Z,6.99
2017-11-08T05:24:16.924Z,6.92
2017-11-08T05:25:16.920Z,6.89
2017-11-08T05:26:16.917Z,6.96
2017-11-08T05:27:16.908Z,6.93
2017-11-08T05:28:16.902Z,6.95
2017-11-08T05:29:16.901Z,6.93
2017-11-08T05:30:16.892Z,6.97
2017-11-08T05:31:16.888Z,6.87
2017-11-08T05:32:16.880Z,6.88
2017-11-08T05:33:16.876Z,6.92
2017-11-08T05:34:16.871Z,6.92
2017-11-08T05:35:16.864Z,6.95
2017-11-08T05:36:16.859Z,6.93
2017-11-08T05:37:16.855Z,6.92
2017-11-08T05:38:16.848Z,6.88
2017-11-08T05:39:16.843Z,6.89
2017-11-08T05:40:16.839Z,7.06
2017-11-08T05:41:16.832Z,6.92
2017-11-08T05:42:16.827Z,6.93
2017-11-08T05:43:16.822Z,6.96
2017-11-08T05:44:16.815Z,7.02
2017-11-08T05:45:16.812Z,6.88
2017-11-08T05:46:16.806Z,7.06
2017-11-08T05:47:16.800Z,6.93
2017-11-08T05:48:16.796Z,6.89
2017-11-08T05:49:16.790Z,6.93
2017-11-08T05:50:16.784Z,6.97
2017-11-08T05:51:16.779Z,7.05
2017-11-08T05:52:16.773Z,6.97
2017-11-08T05:53:16.768Z,7.03
2017-11-08T05:54:16.763Z,7.02
2017-11-08T05:55:16.756Z,7.02
2017-11-08T05:56:16.752Z,6.93
2017-11-08T05:57:16.746Z,7.07
2017-11-08T05:58:16.746Z,7.02
2017-11-08T05:59:16.737Z,7.02
2017-11-08T06:00:16.731Z,7.03
2017-11-08T06:01:16.727Z,6.95
2017-11-08T06:02:16.721Z,7.02
2017-11-08T06:03:16.714Z,7.06
2017-11-08T06:04:16.709Z,7.02
2017-11-08T06:05:16.704Z,6.99
2017-11-08T06:06:16.703Z,6.89
2017-11-08T06:07:16.693Z,6.92
2017-11-08T06:08:16.688Z,6.96
2017-11-08T06:09:16.682Z,7.03
2017-11-08T06:10:16.677Z,6.97
2017-11-08T06:11:16.672Z,6.96
2017-11-08T06:12:16.667Z,7.07
2017-11-08T06:13:16.662Z,6.93
2017-11-08T06:14:16.657Z,6.89
2017-11-08T06:15:16.654Z,7.03
2017-11-08T06:16:16.647Z,7.00
2017-11-08T06:17:16.640Z,7.05
2017-11-08T06:18:16.635Z,7.06
2017-11-08T06:19:16.629Z,7.06
2017-11-08T06:20:16.624Z,7.07
2017-11-08T06:21:16.620Z,7.05
2017-11-08T06:22:16.615Z,7.05
2017-11-08T06:23:16.608Z,7.07
2017-11-08T06:24:16.603Z,7.02
2017-11-08T06:25:16.599Z,7.02
2017-11-08T06:26:16.593Z,7.02
2017-11-08T06:27:16.589Z,7.07
2017-11-08T06:28:16.586Z,7.10
2017-11-08T06:29:16.579Z,7.06
2017-11-08T06:30:16.572Z,7.06
2017-11-08T06:31:16.570Z,7.07
2017-11-08T06:32:16.561Z,7.05
2017-11-08T06:33:16.556Z,7.05
2017-11-08T06:34:16.552Z,7.02
2017-11-08T06:35:16.546Z,7.05
2017-11-08T06:36:16.540Z,7.07
2017-11-08T06:37:16.536Z,7.10
2017-11-08T06:38:16.531Z,7.07
2017-11-08T06:39:16.525Z,7.03
2017-11-08T06:40:16.521Z,7.06
2017-11-08T06:41:16.515Z,7.00
2017-11-08T06:42:16.510Z,6.99
2017-11-08T06:43:16.504Z,7.06
2017-11-08T06:44:16.499Z,7.10
2017-11-08T06:45:16.494Z,7.10
2017-11-08T06:46:16.489Z,7.10
2017-11-08T06:47:16.487Z,7.11
2017-11-08T06:48:16.480Z,7.05
2017-11-08T06:49:16.474Z,7.07
2017-11-08T06:50:16.470Z,7.21
2017-11-08T06:51:16.462Z,7.06
2017-11-08T06:52:16.458Z,7.07
2017-11-08T06:53:16.453Z,7.07
2017-11-08T06:54:16.448Z,7.05
2017-11-08T06:55:16.442Z,7.07
2017-11-08T06:56:16.436Z,7.07
2017-11-08T06:57:16.432Z,7.14
2017-11-08T06:58:16.427Z,7.20
2017-11-08T06:59:16.422Z,7.06
2017-11-08T07:00:16.417Z,7.14
2017-11-08T07:01:16.412Z,7.13
2017-11-08T07:02:16.406Z,7.21
2017-11-08T07:03:16.400Z,7.20
2017-11-08T07:04:16.394Z,7.24
2017-11-08T07:05:16.390Z,7.18
2017-11-08T07:06:16.385Z,7.20
2017-11-08T07:07:16.380Z,7.18
2017-11-08T07:08:16.379Z,7.15
2017-11-08T07:09:16.521Z,7.20
2017-11-08T07:10:16.366Z,7.17
2017-11-08T07:11:16.360Z,7.17
2017-11-08T07:12:16.356Z,7.23
2017-11-08T07:13:16.349Z,7.23
2017-11-08T07:14:16.344Z,7.25
2017-11-08T07:15:16.339Z,7.24
2017-11-08T07:16:16.333Z,7.25
2017-11-08T07:17:16.328Z,7.24
2017-11-08T07:18:16.325Z,7.21
2017-11-08T07:19:16.318Z,7.28
2017-11-08T07:20:16.315Z,7.25
2017-11-08T07:21:16.309Z,7.28
2017-11-08T07:22:16.303Z,7.35
2017-11-08T07:23:16.298Z,7.25
2017-11-08T07:24:16.293Z,7.35
2017-11-08T07:25:16.287Z,7.28
2017-11-08T07:26:16.283Z,7.31
2017-11-08T07:27:16.277Z,7.35
2017-11-08T07:28:16.272Z,7.33
2017-11-08T07:29:16.268Z,7.38
2017-11-08T07:30:16.263Z,7.32
2017-11-08T07:31:16.260Z,7.28
2017-11-08T07:32:16.253Z,7.33
2017-11-08T07:33:16.247Z,7.40
2017-11-08T07:34:16.243Z,7.42
2017-11-08T07:35:16.239Z,7.36
2017-11-08T07:36:16.232Z,7.39
2017-11-08T07:37:16.227Z,7.36
2017-11-08T07:38:16.222Z,7.36
2017-11-08T07:39:16.216Z,7.32
2017-11-08T07:40:16.211Z,7.40
2017-11-08T07:41:16.207Z,7.36
2017-11-08T07:42:16.204Z,7.35
2017-11-08T07:43:16.197Z,7.39
2017-11-08T07:44:16.191Z,7.40
2017-11-08T07:45:16.187Z,7.50
2017-11-08T07:46:16.182Z,7.45
2017-11-08T07:47:16.176Z,7.47
2017-11-08T07:48:16.174Z,7.45
2017-11-08T07:49:16.168Z,7.47
2017-11-08T07:50:16.164Z,7.51
2017-11-08T07:51:16.158Z,7.53
2017-11-08T07:52:16.153Z,7.51
2017-11-08T07:53:16.147Z,7.58
2017-11-08T07:54:16.142Z,7.60
2017-11-08T07:55:16.137Z,7.57
2017-11-08T07:56:16.132Z,7.66
2017-11-08T07:57:16.127Z,7.56
2017-11-08T07:58:16.122Z,7.61
2017-11-08T07:59:16.117Z,7.63
2017-11-08T08:00:16.112Z,7.66
2017-11-08T08:01:16.108Z,7.66
2017-11-08T08:02:16.103Z,7.66
2017-11-08T08:03:16.101Z,7.58
2017-11-08T08:04:16.094Z,7.67
2017-11-08T08:05:16.087Z,7.72
2017-11-08T08:06:16.082Z,7.58
2017-11-08T08:07:16.077Z,7.72
2017-11-08T08:08:16.073Z,7.76
2017-11-08T08:09:16.068Z,7.73
2017-11-08T08:10:16.063Z,7.58
2017-11-08T08:11:16.057Z,7.56
2017-11-08T08:12:16.052Z,7.67
2017-11-08T08:13:16.048Z,7.73
2017-11-08T08:14:16.044Z,7.72
2017-11-08T08:15:16.038Z,7.70
2017-11-08T08:16:16.044Z,7.76
2017-11-08T08:17:16.028Z,7.70
2017-11-08T08:18:16.024Z,7.70
2017-11-08T08:19:16.019Z,7.73
2017-11-08T08:20:16.014Z,7.60
2017-11-08T08:21:16.008Z,7.75
2017-11-08T08:22:16.004Z,7.72
2017-11-08T08:23:15.999Z,7.72
2017-11-08T08:24:15.993Z,7.70
2017-11-08T08:25:15.989Z,7.70
2017-11-08T08:26:15.985Z,7.61
2017-11-08T08:27:15.978Z,7.60
2017-11-08T08:28:15.974Z,7.61
2017-11-08T08:29:15.970Z,7.61
2017-11-08T08:30:15.965Z,7.58
2017-11-08T08:31:15.958Z,7.67
2017-11-08T08:32:15.954Z,7.63
2017-11-08T08:33:15.950Z,7.76
2017-11-08T08:34:15.945Z,7.73
2017-11-08T08:35:15.939Z,7.77
2017-11-08T08:36:15.935Z,7.79
2017-11-08T08:37:15.936Z,7.72
2017-11-08T08:38:15.925Z,7.72
2017-11-08T08:39:15.923Z,7.70
2017-11-08T08:40:15.920Z,7.69
2017-11-08T08:41:16.012Z,7.79
2017-11-08T08:42:15.905Z,7.69
2017-11-08T08:43:15.904Z,7.73
2017-11-08T08:44:15.896Z,7.76
2017-11-08T08:45:15.892Z,7.72
2017-11-08T08:46:15.886Z,7.72
2017-11-08T08:47:15.880Z,7.72
2017-11-08T08:48:15.880Z,7.73
2017-11-08T08:49:15.875Z,7.73
2017-11-08T08:50:15.866Z,7.75
2017-11-08T08:51:15.863Z,7.77
2017-11-08T08:52:15.857Z,7.76
2017-11-08T08:53:15.851Z,7.79
2017-11-08T08:54:15.846Z,7.83
2017-11-08T08:55:15.842Z,7.85
2017-11-08T08:56:15.835Z,7.87
2017-11-08T08:57:15.833Z,7.83
2017-11-08T08:58:15.827Z,7.82
2017-11-08T08:59:15.822Z,7.77
2017-11-08T09:00:15.816Z,7.80
2017-11-08T09:01:15.812Z,7.73
2017-11-08T09:02:15.806Z,7.77
2017-11-08T09:03:15.806Z,7.70
2017-11-08T09:04:15.797Z,7.73
2017-11-08T09:05:15.792Z,7.72
2017-11-08T09:06:15.788Z,7.76
2017-11-08T09:07:15.794Z,7.75
2017-11-08T09:08:15.778Z,7.77
2017-11-08T09:09:15.776Z,7.66
2017-11-08T09:10:15.767Z,7.76
2017-11-08T09:11:15.862Z,7.72
2017-11-08T09:12:15.757Z,7.70
2017-11-08T09:13:15.755Z,7.88
2017-11-08T09:14:15.749Z,7.73
2017-11-08T09:15:15.742Z,7.70
2017-11-08T09:16:15.737Z,7.70
2017-11-08T09:17:15.732Z,7.72
2017-11-08T09:18:15.727Z,7.75
2017-11-08T09:19:15.727Z,7.70
2017-11-08T09:20:15.718Z,7.70
2017-11-08T09:21:15.712Z,7.69
2017-11-08T09:22:15.708Z,7.79
2017-11-08T09:23:15.701Z,7.63
2017-11-08T09:24:15.698Z,7.75
2017-11-08T09:25:15.693Z,7.79
2017-11-08T09:26:15.789Z,7.82
2017-11-08T09:27:15.682Z,7.75
2017-11-08T09:28:15.678Z,7.73
2017-11-08T09:29:15.673Z,7.79
2017-11-08T09:30:15.668Z,7.72
2017-11-08T09:31:15.663Z,7.82
2017-11-08T09:32:15.657Z,7.79
2017-11-08T09:33:15.653Z,7.72
2017-11-08T09:34:15.649Z,7.82
2017-11-08T09:35:15.643Z,7.83
2017-11-08T09:36:15.639Z,7.83
2017-11-08T09:37:15.640Z,7.85
2017-11-08T09:38:15.629Z,7.83
2017-11-08T09:39:15.625Z,7.80
2017-11-08T09:40:15.619Z,7.82
2017-11-08T09:41:15.613Z,7.83
2017-11-08T09:42:15.609Z,7.83
2017-11-08T09:43:15.605Z,7.90
2017-11-08T09:44:15.600Z,7.83
2017-11-08T09:45:15.597Z,7.94
2017-11-08T09:46:15.640Z,7.83
2017-11-08T09:47:15.585Z,7.79
2017-11-08T09:48:15.580Z,7.88
2017-11-08T09:49:15.576Z,7.82
2017-11-08T09:50:15.570Z,7.93
2017-11-08T09:51:15.567Z,7.90
2017-11-08T09:52:15.560Z,7.90
2017-11-08T09:53:15.556Z,7.91
2017-11-08T09:54:15.557Z,7.94
2017-11-08T09:55:15.551Z,8.00
2017-11-08T09:56:15.542Z,7.97
2017-11-08T09:57:15.536Z,7.97
2017-11-08T09:58:15.532Z,8.05
2017-11-08T09:59:15.526Z,8.08
2017-11-08T10:00:15.522Z,8.05
2017-11-08T10:01:15.517Z,8.06
2017-11-08T10:02:15.514Z,8.12
2017-11-08T10:03:15.510Z,8.10
2017-11-08T10:04:15.504Z,8.20
2017-11-08T10:05:15.499Z,8.15
2017-11-08T10:06:15.494Z,8.16
2017-11-08T10:07:15.521Z,8.15
2017-11-08T10:08:15.500Z,8.15
2017-11-08T10:09:15.512Z,8.16
2017-11-08T10:10:15.507Z,8.16
2017-11-08T10:11:15.472Z,8.12
2017-11-08T10:12:15.469Z,8.20
2017-11-08T10:13:15.479Z,8.26
2017-11-08T10:14:15.458Z,8.23
2017-11-08T10:15:15.481Z,8.26
2017-11-08T10:16:15.447Z,8.20
2017-11-08T10:17:15.443Z,8.30
2017-11-08T10:18:15.440Z,8.36
2017-11-08T10:19:15.438Z,8.31
2017-11-08T10:20:15.430Z,8.36
2017-11-08T10:21:15.449Z,8.26
2017-11-08T10:22:15.421Z,8.31
2017-11-08T10:23:15.416Z,8.36
2017-11-08T10:24:15.412Z,8.30
2017-11-08T10:25:15.407Z,8.31
2017-11-08T10:26:15.406Z,8.36
2017-11-08T10:27:15.404Z,8.31
2017-11-08T10:28:15.395Z,8.33
2017-11-08T10:29:15.389Z,8.34
2017-11-08T10:30:15.385Z,8.28
2017-11-08T10:31:15.381Z,8.33
2017-11-08T10:32:15.382Z,8.30
2017-11-08T10:33:15.371Z,8.24
2017-11-08T10:34:15.374Z,8.33
2017-11-08T10:35:15.364Z,8.33
2017-11-08T10:36:15.358Z,8.27
2017-11-08T10:37:15.353Z,8.28
2017-11-08T10:38:15.351Z,8.31
2017-11-08T10:39:15.345Z,8.31
2017-11-08T10:40:15.342Z,8.20
2017-11-08T10:41:15.337Z,8.30
2017-11-08T10:42:15.299Z,8.33
2017-11-08T10:43:15.292Z,8.24
2017-11-08T10:44:15.295Z,8.33
2017-11-08T10:45:15.284Z,8.34
2017-11-08T10:46:15.280Z,8.34
2017-11-08T10:47:15.278Z,8.33
2017-11-08T10:48:15.273Z,8.33
2017-11-08T10:49:15.266Z,8.36
2017-11-08T10:50:15.262Z,8.30
2017-11-08T10:51:15.257Z,8.44
2017-11-08T10:52:15.252Z,8.41
2017-11-08T10:53:15.248Z,8.45
2017-11-08T10:54:15.243Z,8.42
2017-11-08T10:55:15.239Z,8.46
2017-11-08T10:56:15.234Z,8.42
2017-11-08T10:57:15.230Z,8.44
2017-11-08T10:58:15.225Z,8.42
2017-11-08T10:59:15.221Z,8.41
2017-11-08T11:00:15.215Z,8.41
2017-11-08T11:01:15.214Z,8.30
2017-11-08T11:02:15.215Z,8.37
2017-11-08T11:03:15.206Z,8.42
2017-11-08T11:04:15.204Z,8.42
2017-11-08T11:05:15.198Z,8.46
2017-11-08T11:06:15.194Z,8.44
2017-11-08T11:07:15.188Z,8.45
2017-11-08T11:08:15.184Z,8.45
2017-11-08T11:09:15.203Z,8.41
2017-11-08T11:10:15.177Z,8.44
2017-11-08T11:11:15.175Z,8.44
2017-11-08T11:12:15.167Z,8.51
2017-11-08T11:13:15.163Z,8.53
2017-11-08T11:14:15.160Z,8.60
2017-11-08T11:15:15.158Z,8.42
2017-11-08T11:16:15.152Z,8.45
2017-11-08T11:17:15.149Z,8.49
2017-11-08T11:18:15.145Z,8.52
2017-11-08T11:19:15.140Z,8.60
2017-11-08T11:20:15.136Z,8.64
2017-11-08T11:21:15.133Z,8.63
2017-11-08T11:22:15.130Z,8.61
2017-11-08T11:23:15.125Z,8.56
2017-11-08T11:24:15.121Z,8.63
2017-11-08T11:25:15.117Z,8.66
2017-11-08T11:26:15.114Z,8.67
2017-11-08T11:27:15.109Z,8.60
2017-11-08T11:28:15.106Z,8.69
2017-11-08T11:29:15.102Z,8.63
2017-11-08T11:30:15.099Z,8.56
2017-11-08T11:31:15.094Z,8.67
2017-11-08T11:32:15.090Z,8.64
2017-11-08T11:33:15.087Z,8.49
2017-11-08T11:34:15.082Z,8.58
2017-11-08T11:35:15.079Z,8.51
2017-11-08T11:36:15.075Z,8.64
2017-11-08T11:37:15.073Z,8.64
2017-11-08T11:38:15.068Z,8.66
2017-11-08T11:39:15.064Z,8.70
2017-11-08T11:40:15.063Z,8.69
2017-11-08T11:41:15.057Z,8.69
2017-11-08T11:42:15.053Z,8.69
2017-11-08T11:43:15.048Z,8.67
2017-11-08T11:44:15.044Z,8.73
2017-11-08T11:45:15.040Z,8.71
2017-11-08T11:46:15.037Z,8.67
2017-11-08T11:47:15.033Z,8.69
2017-11-08T11:48:15.035Z,8.79
2017-11-08T11:49:15.026Z,8.78
2017-11-08T11:50:15.024Z,8.76
2017-11-08T11:51:15.019Z,8.79
2017-11-08T11:52:15.014Z,8.73
2017-11-08T11:53:15.012Z,8.73
2017-11-08T11:54:15.008Z,8.81
2017-11-08T11:55:15.010Z,8.81
2017-11-08T11:56:15.001Z,8.79
2017-11-08T11:57:14.997Z,8.82
2017-11-08T11:58:14.993Z,8.81
2017-11-08T11:59:14.987Z,8.85
2017-11-08T12:00:14.986Z,8.81
2017-11-08T12:01:14.983Z,8.87
2017-11-08T12:02:14.979Z,8.94
2017-11-08T12:03:14.973Z,9.02
2017-11-08T12:04:14.972Z,8.97
2017-11-08T12:05:14.967Z,8.94
2017-11-08T12:06:14.966Z,8.92
2017-11-08T12:07:14.959Z,8.99
2017-11-08T12:08:14.956Z,8.95
2017-11-08T12:09:14.952Z,8.97
2017-11-08T12:10:14.952Z,9.06
2017-11-08T12:11:14.947Z,8.99
2017-11-08T12:12:14.941Z,9.04
2017-11-08T12:13:14.939Z,9.03
2017-11-08T12:14:14.934Z,9.08
2017-11-08T12:15:14.932Z,9.14
2017-11-08T12:16:14.927Z,9.06
2017-11-08T12:17:14.922Z,9.08
2017-11-08T12:18:14.921Z,9.08
2017-11-08T12:19:14.916Z,9.11
2017-11-08T12:20:14.913Z,9.08
2017-11-08T12:21:14.914Z,8.97
2017-11-08T12:22:14.904Z,8.94
2017-11-08T12:23:14.902Z,8.95
2017-11-08T12:24:14.898Z,8.99
2017-11-08T12:25:14.896Z,8.99
2017-11-08T12:26:14.891Z,9.03
2017-11-08T12:27:14.886Z,9.04
2017-11-08T12:28:14.883Z,8.94
2017-11-08T12:29:14.879Z,9.08
2017-11-08T12:30:14.995Z,9.14
2017-11-08T12:31:14.871Z,9.26
2017-11-08T12:32:14.868Z,9.23
2017-11-08T12:33:14.869Z,9.28
2017-11-08T12:34:14.862Z,9.31
2017-11-08T12:35:14.858Z,9.26
2017-11-08T12:36:14.854Z,9.13
2017-11-08T12:37:14.853Z,9.19
2017-11-08T12:38:14.848Z,9.19
2017-11-08T12:39:14.843Z,9.28
2017-11-08T12:40:14.874Z,9.46
2017-11-08T12:41:14.838Z,9.43
2017-11-08T12:42:14.835Z,9.36
2017-11-08T12:43:14.830Z,9.46
2017-11-08T12:44:14.833Z,9.46
2017-11-08T12:45:14.824Z,9.48
2017-11-08T12:46:14.822Z,9.41
2017-11-08T12:47:14.819Z,9.25
2017-11-08T12:48:14.813Z,9.31
2017-11-08T12:49:14.816Z,9.26
2017-11-08T12:50:14.811Z,9.32
2017-11-08T12:51:14.802Z,9.32
2017-11-08T12:52:14.801Z,9.40
2017-11-08T12:53:14.802Z,9.28
2017-11-08T12:54:14.795Z,9.29
2017-11-08T12:55:14.788Z,9.50
2017-11-08T12:56:14.785Z,9.41
2017-11-08T12:57:14.783Z,9.50
2017-11-08T12:58:14.780Z,9.58
2017-11-08T12:59:14.781Z,9.40
2017-11-08T13:00:14.781Z,9.37
2017-11-08T13:01:14.769Z,9.48
2017-11-08T13:02:14.774Z,9.48
2017-11-08T13:03:14.763Z,9.68
2017-11-08T13:04:14.760Z,9.61
2017-11-08T13:05:14.756Z,9.61
2017-11-08T13:06:14.754Z,9.66
2017-11-08T13:07:14.751Z,9.61
2017-11-08T13:08:14.749Z,9.62
2017-11-08T13:09:14.745Z,9.69
2017-11-08T13:10:14.742Z,9.68
2017-11-08T13:11:14.740Z,9.72
2017-11-08T13:12:14.735Z,9.55
2017-11-08T13:13:14.732Z,9.58
2017-11-08T13:14:14.729Z,9.51
2017-11-08T13:15:14.730Z,9.50
2017-11-08T13:16:14.723Z,9.66
2017-11-08T13:17:14.720Z,9.62
2017-11-08T13:18:14.718Z,9.76
2017-11-08T13:19:14.713Z,9.80
2017-11-08T13:20:14.713Z,9.91
2017-11-08T13:21:14.706Z,9.82
2017-11-08T13:22:14.704Z,9.79
2017-11-08T13:23:14.707Z,9.79
2017-11-08T13:24:14.698Z,9.76
2017-11-08T13:25:14.696Z,9.73
2017-11-08T13:26:14.694Z,9.62
2017-11-08T13:27:14.689Z,9.73
2017-11-08T13:28:14.685Z,9.69
2017-11-08T13:29:14.682Z,9.84
2017-11-08T13:30:14.680Z,9.80
2017-11-08T13:31:14.675Z,9.77
2017-11-08T13:32:14.674Z,9.77